Terminal Aerodrome Forecast
Issued by NWS

Home | Current Version | Previous Version | Text Only | Print | Product List | Glossary On
Versions: 1 2 3 4 5 6 7 8 9 10 11 12 13 14 15 16 17 18
553
FTUS41 KBTV 241720
TAFSLK
TAF
KSLK 241720Z 2418/2518 VRB05KT P6SM FEW250
     FM250400 00000KT P6SM BKN110
     FM250900 00000KT P6SM SCT100
     FM251400 22007KT P6SM SCT080
     FM251700 23011KT P6SM VCSH BKN050=

USA.gov is the U.S. government's official web portal to all federal, state and local government web resources and services.